createdAt,value
2022-09-10T00:02:32.703Z,16.18
2022-09-10T00:07:34.857Z,16.25
2022-09-10T00:12:37.222Z,16.08
2022-09-10T00:17:39.464Z,16.06
2022-09-10T00:22:41.803Z,16.21
2022-09-10T00:27:43.882Z,16.32
2022-09-10T00:32:49.886Z,16.55
2022-09-10T00:37:52.649Z,16.32
2022-09-10T00:42:58.168Z,16.60
2022-09-10T00:48:06.162Z,16.67
2022-09-10T00:53:13.557Z,16.67
2022-09-10T00:58:18.692Z,16.77
2022-09-10T01:03:25.401Z,16.66
2022-09-10T01:08:28.135Z,16.67
2022-09-10T01:13:33.725Z,16.63
2022-09-10T01:18:39.982Z,16.75
2022-09-10T01:24:13.811Z,16.59
2022-09-10T01:29:35.999Z,16.63
2022-09-10T01:34:47.740Z,16.74
2022-09-10T01:39:53.099Z,16.74
2022-09-10T01:44:58.257Z,16.80
2022-09-10T01:50:24.462Z,16.69
2022-09-10T01:55:34.613Z,16.51
2022-09-10T02:00:43.044Z,16.23
2022-09-10T02:05:50.334Z,16.43
2022-09-10T02:10:54.399Z,16.24
2022-09-10T02:15:59.831Z,16.25
2022-09-10T02:21:10.673Z,16.00
2022-09-10T02:26:14.794Z,16.09
2022-09-10T02:31:18.908Z,16.07
2022-09-10T02:36:22.288Z,15.96
2022-09-10T02:41:26.218Z,15.71
2022-09-10T02:46:30.539Z,15.74
2022-09-10T02:51:33.362Z,15.77
2022-09-10T02:56:35.751Z,15.62
2022-09-10T03:01:39.088Z,15.58
2022-09-10T03:06:44.108Z,15.46
2022-09-10T03:11:46.788Z,15.41
2022-09-10T03:16:49.924Z,15.53
2022-09-10T03:21:53.224Z,15.58
2022-09-10T03:26:55.466Z,15.53
2022-09-10T03:31:58.129Z,15.40
2022-09-10T03:37:00.532Z,15.49
2022-09-10T03:42:05.455Z,15.49
2022-09-10T03:47:08.220Z,15.53
2022-09-10T03:52:13.348Z,15.32
2022-09-10T03:57:17.763Z,15.32
2022-09-10T04:02:20.282Z,15.43
2022-09-10T04:07:22.772Z,15.36
2022-09-10T04:12:27.293Z,15.50
2022-09-10T04:17:29.813Z,15.55
2022-09-10T04:22:32.112Z,15.69
2022-09-10T04:27:35.617Z,15.71
2022-09-10T04:32:38.695Z,15.88
2022-09-10T04:37:40.969Z,15.96
2022-09-10T04:42:45.035Z,16.03
2022-09-10T04:47:47.826Z,16.16
2022-09-10T04:52:50.028Z,16.20
2022-09-10T04:57:53.212Z,16.32
2022-09-10T05:02:55.707Z,16.65
2022-09-10T05:08:00.466Z,16.94
2022-09-10T05:13:03.530Z,17.28
2022-09-10T05:18:07.798Z,17.75
2022-09-10T05:23:12.786Z,17.94
2022-09-10T05:28:18.802Z,18.13
2022-09-10T05:33:21.559Z,18.33
2022-09-10T05:38:25.042Z,18.59
2022-09-10T05:43:28.560Z,19.17
2022-09-10T05:48:31.963Z,25.13
2022-09-10T05:53:34.479Z,30.38
2022-09-10T05:58:36.682Z,33.99
2022-09-10T06:03:40.865Z,34.57
2022-09-10T06:08:43.744Z,33.16
2022-09-10T06:13:53.648Z,30.02
2022-09-10T06:18:57.517Z,28.02
2022-09-10T06:24:02.552Z,26.50
2022-09-10T06:29:08.791Z,25.42
2022-09-10T06:34:13.723Z,24.63
2022-09-10T06:44:42.531Z,24.85
2022-09-10T06:49:59.231Z,25.47
2022-09-10T06:55:01.830Z,24.91
2022-09-10T07:00:14.434Z,24.80
2022-09-10T07:05:20.149Z,25.13
2022-09-10T07:10:23.221Z,25.34
2022-09-10T07:15:28.356Z,26.58
2022-09-10T07:20:31.265Z,26.59
2022-09-10T07:25:34.596Z,26.52
2022-09-10T07:30:44.728Z,26.02
2022-09-10T07:35:49.201Z,25.58
2022-09-10T07:40:54.498Z,25.40
2022-09-10T07:46:00.004Z,25.47
2022-09-10T07:51:09.100Z,25.71
2022-09-10T07:56:11.872Z,26.35
2022-09-10T08:01:16.426Z,26.68
2022-09-10T08:06:19.588Z,26.92
2022-09-10T08:11:24.300Z,26.88
2022-09-10T08:16:29.560Z,26.78
2022-09-10T08:21:38.082Z,26.33
2022-09-10T08:26:41.367Z,25.87
2022-09-10T08:31:43.761Z,26.00
2022-09-10T08:37:04.504Z,26.28
2022-09-10T08:42:24.916Z,27.75
2022-09-10T08:48:14.666Z,28.80
2022-09-10T08:53:52.041Z,29.56
2022-09-10T08:59:05.291Z,29.08
2022-09-10T09:04:52.556Z,29.14
2022-09-10T09:09:55.136Z,29.62
2022-09-10T09:15:17.564Z,30.39
2022-09-10T09:20:43.291Z,31.75
2022-09-10T09:25:59.247Z,32.53
2022-09-10T09:31:10.690Z,32.65
2022-09-10T09:36:19.631Z,32.92
2022-09-10T09:41:39.553Z,34.14
2022-09-10T09:46:42.771Z,34.46
2022-09-10T09:51:48.536Z,34.99
2022-09-10T09:56:52.586Z,34.78
2022-09-10T10:01:58.916Z,34.39
2022-09-10T10:07:02.497Z,33.95
2022-09-10T10:12:18.793Z,33.94
2022-09-10T10:17:35.743Z,34.56
2022-09-10T10:22:40.841Z,36.06
2022-09-10T10:27:45.518Z,35.72
2022-09-10T10:33:04.172Z,35.70
2022-09-10T10:38:13.711Z,35.65
2022-09-10T10:43:42.768Z,34.64
2022-09-10T10:49:03.613Z,33.93
2022-09-10T10:54:20.108Z,33.32
2022-09-10T10:59:51.324Z,32.33
2022-09-10T11:05:01.629Z,31.64
2022-09-10T11:10:20.109Z,31.71
2022-09-10T11:15:31.251Z,32.83
2022-09-10T11:20:42.775Z,32.47
2022-09-10T11:26:00.715Z,33.50
2022-09-10T11:31:17.639Z,33.52
2022-09-10T11:36:29.772Z,32.79
2022-09-10T11:41:32.941Z,32.87
2022-09-10T11:46:57.823Z,33.24
2022-09-10T11:52:02.320Z,33.16
2022-09-10T11:57:12.739Z,33.04
2022-09-10T12:02:33.010Z,32.94
2022-09-10T12:08:03.273Z,32.50
2022-09-10T12:13:13.292Z,31.81
2022-09-10T12:18:45.267Z,31.91
2022-09-10T12:23:47.886Z,32.18
2022-09-10T12:28:49.888Z,32.52
2022-09-10T12:33:51.865Z,32.87
2022-09-10T12:39:20.196Z,32.34
2022-09-10T12:44:42.285Z,32.30
2022-09-10T12:49:57.375Z,32.54
2022-09-10T12:55:32.144Z,32.41
2022-09-10T13:00:46.893Z,31.83
2022-09-10T18:25:33.425Z,19.60
2022-09-10T18:30:35.775Z,19.68
2022-09-10T18:35:37.985Z,19.83
2022-09-10T18:40:40.980Z,19.90
2022-09-10T18:45:43.026Z,19.93
2022-09-10T18:50:45.250Z,19.87
2022-09-10T18:55:47.362Z,19.96
2022-09-10T19:00:49.392Z,20.22
2022-09-10T19:05:51.584Z,20.30
2022-09-10T19:10:59.240Z,20.29
2022-09-10T19:16:03.400Z,20.13
2022-09-10T19:21:08.337Z,19.85
2022-09-10T19:26:13.162Z,19.66
2022-09-10T19:31:20.785Z,19.56
2022-09-10T19:36:23.575Z,19.55
2022-09-10T19:41:26.114Z,19.46
2022-09-10T19:46:28.847Z,19.58
2022-09-10T19:51:34.469Z,19.65
2022-09-10T19:56:42.568Z,19.67
2022-09-10T20:01:46.304Z,19.38
2022-09-10T20:06:50.515Z,19.72
2022-09-10T20:11:52.622Z,19.72
2022-09-10T20:16:54.959Z,19.53
2022-09-10T20:21:57.108Z,19.35
2022-09-10T20:27:01.543Z,19.34
2022-09-10T20:32:03.862Z,19.37
2022-09-10T20:37:06.079Z,19.47
2022-09-10T20:42:33.580Z,19.50
2022-09-10T20:47:43.150Z,19.13
2022-09-10T20:52:45.394Z,19.48
2022-09-10T20:57:47.615Z,19.61
2022-09-10T21:02:51.650Z,19.78
2022-09-10T21:07:56.644Z,19.63
2022-09-10T21:12:58.962Z,19.82
2022-09-10T21:18:01.204Z,19.33
2022-09-10T21:23:05.161Z,19.13
2022-09-10T21:28:07.384Z,19.16
2022-09-10T21:33:09.654Z,19.27
2022-09-10T21:38:12.864Z,19.51
2022-09-10T21:43:14.997Z,19.28
2022-09-10T21:48:17.122Z,19.10
2022-09-10T21:53:19.279Z,18.97
2022-09-10T21:58:21.390Z,19.00
2022-09-10T22:03:23.613Z,19.16
2022-09-10T22:08:26.288Z,19.09
2022-09-10T22:13:28.645Z,19.12
2022-09-10T22:18:30.712Z,19.13
2022-09-10T22:23:35.441Z,18.94
2022-09-10T22:28:38.579Z,19.13
2022-09-10T22:33:43.506Z,19.05
2022-09-10T22:38:59.478Z,18.99
2022-09-10T22:44:02.687Z,19.03
2022-09-10T22:49:05.515Z,19.07
2022-09-10T22:54:08.489Z,19.10
2022-09-10T22:59:14.152Z,19.13
2022-09-10T23:04:16.596Z,19.09
2022-09-10T23:09:18.925Z,18.94
2022-09-10T23:14:22.200Z,19.05
2022-09-10T23:19:25.417Z,18.76
2022-09-10T23:24:28.434Z,18.58
2022-09-10T23:29:30.521Z,18.66
2022-09-10T23:34:32.621Z,18.50
2022-09-10T23:39:35.000Z,18.64
2022-09-10T23:44:37.238Z,18.78
2022-09-10T23:49:39.488Z,18.87
2022-09-10T23:54:41.976Z,18.87
2022-09-10T23:59:44.481Z,18.86
